createdAt,value
2022-08-14T00:02:01.432Z,4.85
2022-08-14T00:04:34.794Z,4.63
2022-08-14T00:07:09.537Z,5.03
2022-08-14T00:09:55.484Z,4.75
2022-08-14T00:12:33.518Z,5.10
2022-08-14T00:15:26.665Z,5.47
2022-08-14T00:17:57.422Z,5.90
2022-08-14T00:20:31.008Z,5.63
2022-08-14T00:23:16.545Z,5.53
2022-08-14T00:25:59.196Z,5.22
2022-08-14T00:28:35.226Z,5.63
2022-08-14T00:31:04.584Z,6.28
2022-08-14T00:33:52.123Z,6.20
2022-08-14T00:36:39.341Z,7.10
2022-08-14T00:39:09.285Z,6.30
2022-08-14T00:41:38.898Z,6.90
2022-08-14T00:44:07.273Z,6.10
2022-08-14T00:46:37.289Z,7.00
2022-08-14T00:49:05.519Z,6.85
2022-08-14T00:51:34.789Z,6.70
2022-08-14T00:54:16.816Z,6.70
2022-08-14T00:56:55.468Z,6.78
2022-08-14T00:59:28.411Z,6.93
2022-08-14T01:01:58.324Z,6.50
2022-08-14T01:04:38.116Z,7.20
2022-08-14T01:07:21.016Z,7.07
2022-08-14T01:09:53.647Z,6.97
2022-08-14T01:12:26.515Z,6.75
2022-08-14T01:15:02.214Z,6.70
2022-08-14T01:17:50.793Z,6.97
2022-08-14T01:20:39.306Z,7.50
2022-08-14T01:23:16.601Z,7.93
2022-08-14T01:25:48.042Z,8.18
2022-08-14T01:28:46.601Z,8.18
2022-08-14T01:31:05.887Z,7.80
2022-08-14T01:33:44.670Z,7.25
2022-08-14T01:36:22.990Z,7.10
2022-08-14T01:38:51.897Z,8.20
2022-08-14T01:41:23.049Z,7.07
2022-08-14T01:44:02.283Z,7.18
2022-08-14T01:46:33.474Z,7.07
2022-08-14T01:49:08.606Z,7.38
2022-08-14T01:51:36.626Z,7.20
2022-08-14T01:54:14.444Z,6.95
2022-08-14T01:56:44.704Z,7.25
2022-08-14T01:59:19.578Z,7.40
2022-08-14T02:01:58.028Z,7.40
2022-08-14T02:04:55.094Z,7.20
2022-08-14T02:07:44.817Z,7.43
2022-08-14T02:10:06.845Z,6.97
2022-08-14T02:12:34.745Z,7.03
2022-08-14T02:15:03.455Z,7.03
2022-08-14T02:17:33.423Z,7.40
2022-08-14T02:20:00.777Z,7.13
2022-08-14T02:22:33.353Z,7.10
2022-08-14T02:25:01.620Z,6.95
2022-08-14T02:28:24.893Z,6.65
2022-08-14T02:30:17.196Z,6.78
2022-08-14T02:32:45.844Z,6.70
2022-08-14T02:35:17.868Z,6.53
2022-08-14T02:37:48.166Z,5.47
2022-08-14T02:40:18.377Z,4.90
2022-08-14T02:42:54.983Z,5.20
2022-08-14T02:45:33.404Z,5.60
2022-08-14T02:48:10.434Z,5.20
2022-08-14T02:50:54.930Z,5.30
2022-08-14T02:53:22.528Z,5.68
2022-08-14T02:55:49.891Z,5.63
2022-08-14T02:58:30.926Z,5.47
2022-08-14T03:00:59.643Z,5.90
2022-08-14T03:03:31.519Z,5.72
2022-08-14T03:06:00.517Z,5.18
2022-08-14T03:08:31.791Z,5.43
2022-08-14T03:11:07.762Z,5.47
2022-08-14T03:13:36.981Z,5.57
2022-08-14T03:16:09.016Z,5.20
2022-08-14T03:18:42.367Z,4.90
2022-08-14T03:21:13.303Z,5.38
2022-08-14T03:23:41.601Z,5.25
2022-08-14T03:26:12.996Z,5.28
2022-08-14T03:28:51.202Z,5.20
2022-08-14T03:31:22.449Z,5.00
2022-08-14T03:33:54.399Z,5.45
2022-08-14T03:37:51.891Z,5.10
2022-08-14T03:39:21.550Z,5.03
2022-08-14T03:41:52.492Z,5.38
2022-08-14T03:45:26.480Z,5.63
2022-08-14T03:47:08.217Z,4.70
2022-08-14T03:49:42.006Z,4.95
2022-08-14T03:52:28.203Z,5.45
2022-08-14T03:54:59.191Z,5.20
2022-08-14T03:57:32.335Z,5.80
2022-08-14T04:00:03.532Z,5.38
2022-08-14T04:02:46.879Z,5.18
2022-08-14T04:05:16.665Z,5.88
2022-08-14T04:07:49.921Z,5.50
2022-08-14T04:10:33.092Z,5.05
2022-08-14T04:13:03.282Z,5.78
2022-08-14T04:15:52.717Z,5.68
2022-08-14T04:18:19.711Z,5.28
2022-08-14T04:20:55.024Z,5.20
2022-08-14T04:23:23.654Z,5.60
2022-08-14T04:25:54.778Z,5.25
2022-08-14T04:29:01.991Z,5.20
2022-08-14T04:31:09.766Z,5.03
2022-08-14T04:33:38.335Z,4.82
2022-08-14T04:36:06.539Z,5.00
2022-08-14T04:38:55.294Z,5.50
2022-08-14T04:41:43.478Z,5.15
2022-08-14T04:44:13.557Z,5.80
2022-08-14T04:47:16.959Z,5.43
2022-08-14T04:49:57.050Z,5.22
2022-08-14T04:52:25.594Z,5.00
2022-08-14T04:54:54.754Z,4.88
2022-08-14T04:57:22.948Z,4.82
2022-08-14T04:59:52.849Z,4.97
2022-08-14T05:02:24.489Z,5.05
2022-08-14T05:04:57.072Z,4.47
2022-08-14T05:07:34.021Z,5.00
2022-08-14T05:10:16.732Z,4.65
2022-08-14T05:13:11.257Z,4.55
2022-08-14T05:15:39.572Z,5.07
2022-08-14T05:18:17.784Z,4.72
2022-08-14T05:21:58.151Z,4.88
2022-08-14T05:23:49.999Z,4.40
2022-08-14T05:26:18.145Z,4.43
2022-08-14T05:28:46.321Z,4.28
2022-08-14T05:31:15.923Z,4.30
2022-08-14T05:36:25.176Z,4.07
2022-08-14T05:38:53.193Z,4.03
2022-08-14T05:41:21.834Z,4.30
2022-08-14T05:43:51.132Z,4.10
2022-08-14T05:46:22.733Z,4.10
2022-08-14T05:48:51.204Z,4.07
2022-08-14T05:51:19.551Z,3.80
2022-08-14T05:54:01.857Z,3.80
2022-08-14T05:56:36.910Z,3.40
2022-08-14T05:59:05.542Z,4.15
2022-08-14T06:01:32.967Z,4.00
2022-08-14T06:04:00.892Z,4.35
2022-08-14T06:06:36.583Z,3.65
2022-08-14T06:09:07.395Z,4.00
2022-08-14T06:11:37.733Z,3.60
2022-08-14T06:14:12.305Z,4.00
2022-08-14T06:16:48.625Z,3.80
2022-08-14T06:19:18.441Z,3.65
2022-08-14T06:21:45.896Z,3.75
2022-08-14T06:24:18.152Z,3.83
2022-08-14T06:26:52.005Z,3.72
2022-08-14T06:29:24.668Z,3.58
2022-08-14T06:32:00.174Z,3.30
2022-08-14T06:35:04.522Z,3.40
2022-08-14T06:37:18.687Z,3.50
2022-08-14T06:39:46.594Z,3.72
2022-08-14T06:42:22.334Z,3.38
2022-08-14T06:45:02.803Z,3.40
2022-08-14T06:47:30.396Z,3.33
2022-08-14T06:49:58.345Z,3.92
2022-08-14T06:52:26.025Z,3.60
2022-08-14T06:54:57.772Z,3.53
2022-08-14T06:57:25.148Z,3.58
2022-08-14T06:59:52.479Z,3.60
2022-08-14T07:02:43.709Z,3.60
2022-08-14T07:05:29.797Z,3.55
2022-08-14T07:07:58.194Z,3.78
2022-08-14T07:10:26.072Z,3.50
2022-08-14T07:13:03.722Z,3.53
2022-08-14T07:15:34.378Z,3.33
2022-08-14T07:18:08.908Z,3.45
2022-08-14T07:20:37.091Z,3.35
2022-08-14T07:23:09.138Z,3.50
2022-08-14T07:25:38.142Z,3.65
2022-08-14T07:28:20.189Z,3.50
2022-08-14T07:30:51.029Z,3.60
2022-08-14T07:33:24.364Z,3.55
2022-08-14T07:35:59.442Z,3.92
2022-08-14T07:38:33.690Z,3.20
2022-08-14T07:41:10.778Z,3.65
2022-08-14T07:43:42.345Z,3.20
2022-08-14T07:46:09.792Z,3.53
2022-08-14T07:48:40.799Z,3.30
2022-08-14T07:51:11.050Z,3.30
2022-08-14T07:53:40.904Z,3.22
2022-08-14T07:56:44.250Z,3.33
2022-08-14T07:58:58.786Z,3.60
2022-08-14T08:01:26.384Z,3.10
2022-08-14T08:03:59.472Z,3.10
2022-08-14T08:06:27.588Z,3.20
2022-08-14T08:09:01.495Z,2.95
2022-08-14T08:11:37.665Z,2.88
2022-08-14T08:14:10.758Z,3.55
2022-08-14T08:16:45.703Z,3.00
2022-08-14T08:19:14.116Z,3.13
2022-08-14T08:21:43.752Z,3.17
2022-08-14T08:24:15.069Z,3.30
2022-08-14T08:26:46.101Z,3.08
2022-08-14T08:29:20.180Z,3.20
2022-08-14T08:31:52.737Z,2.80
2022-08-14T08:34:24.188Z,2.83
2022-08-14T08:36:52.598Z,2.97
2022-08-14T08:39:22.513Z,3.03
2022-08-14T08:41:53.230Z,2.97
2022-08-14T08:44:32.342Z,3.10
2022-08-14T08:47:06.516Z,3.05
2022-08-14T08:49:52.876Z,3.10
2022-08-14T08:52:31.970Z,2.90
2022-08-14T08:55:00.760Z,3.15
2022-08-14T08:57:35.942Z,3.22
2022-08-14T09:00:25.243Z,3.42
2022-08-14T09:02:59.223Z,3.28
2022-08-14T09:05:26.970Z,3.55
2022-08-14T09:07:56.302Z,3.05
2022-08-14T09:10:27.211Z,3.45
2022-08-14T09:12:56.246Z,3.40
2022-08-14T09:15:24.153Z,3.05
2022-08-14T09:17:51.722Z,3.10
2022-08-14T09:20:26.211Z,3.05
2022-08-14T09:22:58.400Z,3.00
2022-08-14T09:26:00.063Z,3.47
2022-08-14T09:28:13.802Z,2.90
2022-08-14T09:30:49.808Z,3.33
2022-08-14T09:33:22.896Z,3.08
2022-08-14T09:36:09.001Z,3.03
2022-08-14T09:39:21.411Z,3.22
2022-08-14T09:42:21.953Z,3.00
2022-08-14T09:45:07.835Z,3.42
2022-08-14T09:47:43.353Z,3.10
2022-08-14T09:50:30.748Z,3.17
2022-08-14T09:53:04.551Z,3.47
2022-08-14T09:55:42.599Z,3.72
2022-08-14T09:58:19.595Z,3.50
2022-08-14T10:00:54.031Z,3.40
2022-08-14T10:03:33.840Z,3.70
2022-08-14T10:06:12.118Z,3.60
2022-08-14T10:08:50.887Z,3.58
2022-08-14T10:11:23.542Z,3.65
2022-08-14T10:13:56.982Z,4.72
2022-08-14T10:16:33.437Z,4.20
2022-08-14T10:19:07.518Z,3.70
2022-08-14T10:21:58.312Z,3.67
2022-08-14T10:24:37.357Z,3.75
2022-08-14T10:27:05.431Z,3.42
2022-08-14T10:29:38.067Z,3.55
2022-08-14T10:32:18.256Z,3.15
2022-08-14T10:35:13.567Z,4.57
2022-08-14T10:37:46.774Z,3.00
2022-08-14T10:40:37.697Z,3.20
2022-08-14T10:43:03.549Z,3.00
2022-08-14T10:45:35.551Z,3.25
2022-08-14T10:48:34.531Z,3.22
2022-08-14T10:51:04.133Z,3.38
2022-08-14T10:53:37.073Z,3.40
2022-08-14T10:56:21.941Z,3.42
2022-08-14T10:59:08.515Z,3.47
2022-08-14T11:01:38.425Z,3.38
2022-08-14T11:04:26.075Z,2.80
2022-08-14T11:06:55.427Z,3.00
2022-08-14T11:09:26.219Z,2.72
2022-08-14T11:12:34.133Z,3.00
2022-08-14T11:15:02.079Z,2.70
2022-08-14T11:17:33.994Z,2.95
2022-08-14T11:20:02.756Z,3.28
2022-08-14T11:22:56.180Z,2.78
2022-08-14T11:25:20.412Z,3.00
2022-08-14T11:27:49.379Z,3.13
2022-08-14T11:30:50.887Z,3.10
2022-08-14T11:33:09.153Z,3.00
2022-08-14T11:35:47.677Z,3.22
2022-08-14T11:38:17.115Z,3.35
2022-08-14T11:40:46.668Z,3.20
2022-08-14T11:43:14.948Z,3.17
2022-08-14T11:45:45.598Z,2.80
2022-08-14T11:49:01.727Z,10.93
2022-08-14T11:51:24.435Z,3.10
2022-08-14T11:53:53.988Z,2.97
2022-08-14T11:56:25.650Z,2.40
2022-08-14T11:58:56.943Z,3.67
2022-08-14T12:01:28.582Z,2.65
2022-08-14T12:03:59.215Z,2.80
2022-08-14T12:06:39.458Z,2.80
2022-08-14T12:09:08.652Z,2.80
2022-08-14T12:14:30.710Z,2.67
2022-08-14T12:17:12.146Z,2.80
2022-08-14T12:19:51.416Z,2.67
2022-08-14T12:22:37.348Z,2.20
2022-08-14T12:25:11.059Z,2.30
2022-08-14T12:27:51.845Z,2.10
2022-08-14T12:30:39.556Z,2.60
2022-08-14T12:33:23.815Z,3.30
2022-08-14T12:35:52.002Z,2.63
2022-08-14T12:38:39.031Z,2.75
2022-08-14T12:41:11.138Z,3.78
2022-08-14T12:43:59.794Z,2.75
2022-08-14T12:46:31.341Z,3.28
2022-08-14T12:49:06.870Z,3.10
2022-08-14T12:51:34.400Z,3.53
2022-08-14T12:54:27.791Z,2.83
2022-08-14T12:57:10.418Z,2.40
2022-08-14T12:59:45.496Z,2.70
2022-08-14T13:02:29.883Z,2.78
2022-08-14T13:04:58.087Z,2.70
2022-08-14T13:07:32.685Z,3.08
2022-08-14T13:10:00.839Z,3.35
2022-08-14T13:13:12.000Z,3.03
2022-08-14T13:15:38.183Z,3.20
2022-08-14T13:18:07.602Z,3.38
2022-08-14T13:20:35.030Z,3.30
2022-08-14T13:23:02.439Z,3.40
2022-08-14T13:25:30.256Z,3.20
2022-08-14T13:27:59.065Z,3.13
2022-08-14T13:30:26.808Z,3.35
2022-08-14T13:32:58.078Z,3.60
2022-08-14T13:35:25.896Z,3.30
2022-08-14T13:37:54.083Z,3.00
2022-08-14T13:40:26.590Z,3.42
2022-08-14T13:42:56.815Z,3.30
2022-08-14T13:45:59.311Z,3.20
2022-08-14T13:48:27.423Z,3.33
2022-08-14T13:51:01.692Z,3.60
2022-08-14T13:53:33.050Z,3.25
2022-08-14T13:56:00.914Z,3.20
2022-08-14T13:58:30.338Z,3.05
2022-08-14T14:01:01.486Z,3.10
2022-08-14T14:03:30.205Z,3.10
2022-08-14T14:05:59.262Z,3.22
2022-08-14T14:08:45.906Z,3.30
2022-08-14T14:11:17.471Z,3.13
2022-08-14T14:13:47.069Z,3.08
2022-08-14T14:16:26.109Z,3.50
2022-08-14T14:19:06.121Z,3.22
2022-08-14T14:21:36.880Z,3.10
2022-08-14T14:24:05.511Z,3.20
2022-08-14T14:26:35.911Z,3.15
2022-08-14T14:29:04.443Z,3.22
2022-08-14T14:31:32.515Z,3.40
2022-08-14T14:34:07.732Z,3.80
2022-08-14T14:36:52.545Z,3.30
2022-08-14T14:39:27.454Z,3.53
2022-08-14T14:41:58.659Z,3.40
2022-08-14T14:44:32.075Z,3.10
2022-08-14T14:46:59.614Z,3.10
2022-08-14T14:49:42.204Z,3.30
2022-08-14T14:52:26.725Z,3.20
2022-08-14T14:54:56.569Z,3.80
2022-08-14T14:57:26.687Z,3.20
2022-08-14T15:00:21.327Z,3.55
2022-08-14T15:02:51.695Z,3.10
2022-08-14T15:05:19.853Z,3.92
2022-08-14T15:07:48.473Z,3.30
2022-08-14T15:10:28.159Z,3.20
2022-08-14T15:13:03.441Z,3.35
2022-08-14T15:15:37.181Z,3.63
2022-08-14T15:18:10.159Z,3.35
2022-08-14T15:20:54.955Z,3.63
2022-08-14T15:23:24.591Z,3.53
2022-08-14T15:25:53.384Z,3.28
2022-08-14T15:28:21.700Z,3.15
2022-08-14T15:30:51.021Z,3.42
2022-08-14T15:34:00.924Z,3.55
2022-08-14T15:36:31.413Z,3.38
2022-08-14T15:38:59.130Z,3.70
2022-08-14T15:41:27.312Z,3.40
2022-08-14T15:44:25.355Z,3.42
2022-08-14T15:46:53.457Z,3.60
2022-08-14T15:49:20.869Z,3.42
2022-08-14T15:51:50.979Z,4.07
2022-08-14T15:54:21.987Z,3.30
2022-08-14T15:56:57.237Z,3.60
2022-08-14T15:59:27.177Z,3.45
2022-08-14T16:01:55.531Z,3.28
2022-08-14T16:04:24.057Z,3.10
2022-08-14T16:06:55.586Z,3.65
2022-08-14T16:09:23.368Z,3.38
2022-08-14T16:11:53.620Z,3.60
2022-08-14T16:14:22.595Z,3.65
2022-08-14T16:16:59.901Z,3.30
2022-08-14T16:19:31.460Z,3.70
2022-08-14T16:22:58.411Z,3.55
2022-08-14T16:25:00.479Z,4.13
2022-08-14T16:27:38.778Z,3.60
2022-08-14T16:30:20.601Z,3.20
2022-08-14T16:32:55.036Z,3.50
2022-08-14T16:35:26.495Z,3.10
2022-08-14T16:38:19.522Z,3.22
2022-08-14T16:41:17.048Z,3.67
2022-08-14T16:43:45.269Z,3.67
2022-08-14T16:46:22.545Z,3.88
2022-08-14T16:48:57.942Z,3.85
2022-08-14T16:51:28.074Z,3.75
2022-08-14T16:53:58.732Z,4.55
2022-08-14T16:56:30.893Z,3.70
2022-08-14T16:59:12.281Z,3.55
2022-08-14T17:01:47.389Z,3.65
2022-08-14T17:04:24.677Z,4.28
2022-08-14T17:06:54.912Z,3.70
2022-08-14T17:09:29.813Z,4.00
2022-08-14T17:12:28.976Z,3.78
2022-08-14T17:15:03.663Z,3.97
2022-08-14T17:17:40.715Z,3.67
2022-08-14T17:20:53.315Z,3.72
2022-08-14T17:22:59.155Z,3.33
2022-08-14T17:25:30.120Z,4.13
2022-08-14T17:31:02.595Z,4.45
2022-08-14T17:33:44.358Z,4.38
2022-08-14T17:39:11.922Z,4.15
2022-08-14T17:41:47.728Z,3.90
2022-08-14T17:44:44.979Z,4.15
2022-08-14T17:47:14.838Z,4.00
2022-08-14T17:49:47.499Z,4.10
2022-08-14T17:52:35.981Z,4.13
2022-08-14T17:56:00.534Z,4.07
2022-08-14T17:58:00.527Z,4.57
2022-08-14T18:00:28.672Z,4.80
2022-08-14T18:02:58.591Z,5.03
2022-08-14T18:06:08.546Z,4.50
2022-08-14T18:08:34.089Z,4.40
2022-08-14T18:11:03.365Z,4.55
2022-08-14T18:13:50.404Z,4.25
2022-08-14T18:16:19.635Z,5.10
2022-08-14T18:18:48.472Z,4.82
2022-08-14T18:21:40.014Z,4.60
2022-08-14T18:24:03.300Z,4.32
2022-08-14T18:26:36.503Z,5.20
2022-08-14T18:29:14.674Z,4.55
2022-08-14T18:31:45.318Z,5.10
2022-08-14T18:34:32.248Z,4.95
2022-08-14T18:37:18.343Z,5.47
2022-08-14T18:40:01.267Z,5.10
2022-08-14T18:42:34.804Z,5.38
2022-08-14T18:45:12.537Z,5.50
2022-08-14T18:50:32.412Z,5.68
2022-08-14T18:53:08.962Z,5.38
2022-08-14T18:55:52.718Z,5.85
2022-08-14T18:58:57.012Z,6.40
2022-08-14T19:01:29.802Z,5.80
2022-08-14T19:03:58.740Z,5.25
2022-08-14T19:06:43.539Z,5.80
2022-08-14T19:09:50.314Z,5.75
2022-08-14T19:12:56.670Z,6.28
2022-08-14T19:15:27.298Z,6.28
2022-08-14T19:18:14.344Z,5.90
2022-08-14T19:21:00.894Z,5.75
2022-08-14T19:23:44.237Z,6.63
2022-08-14T19:26:34.108Z,7.10
2022-08-14T19:29:37.772Z,6.72
2022-08-14T19:32:36.373Z,6.05
2022-08-14T19:35:16.575Z,6.20
2022-08-14T19:37:54.820Z,6.22
2022-08-14T19:40:33.298Z,6.53
2022-08-14T19:43:03.340Z,6.55
2022-08-14T19:45:34.449Z,6.78
2022-08-14T19:48:02.781Z,5.90
2022-08-14T19:50:40.382Z,6.43
2022-08-14T19:53:16.513Z,5.88
2022-08-14T19:55:59.409Z,5.90
2022-08-14T19:58:54.842Z,5.85
2022-08-14T20:01:37.319Z,6.22
2022-08-14T20:04:08.214Z,5.70
2022-08-14T20:06:55.622Z,5.72
2022-08-14T20:11:07.225Z,5.97
2022-08-14T20:12:28.709Z,5.80
2022-08-14T20:15:08.770Z,5.90
2022-08-14T20:17:50.036Z,5.75
2022-08-14T20:20:31.778Z,5.93
2022-08-14T20:23:11.132Z,5.50
2022-08-14T20:25:45.482Z,5.40
2022-08-14T20:28:32.012Z,5.55
2022-08-14T20:31:13.693Z,5.22
2022-08-14T20:34:01.076Z,5.60
2022-08-14T20:36:30.748Z,5.22
2022-08-14T20:38:58.349Z,5.43
2022-08-14T20:41:25.738Z,5.13
2022-08-14T20:44:15.307Z,6.10
2022-08-14T20:46:50.021Z,5.70
2022-08-14T20:49:27.833Z,5.65
2022-08-14T20:52:00.169Z,6.20
2022-08-14T20:54:34.442Z,6.07
2022-08-14T20:57:22.395Z,6.03
2022-08-14T20:59:53.321Z,5.57
2022-08-14T21:02:50.255Z,5.70
2022-08-14T21:05:20.529Z,6.63
2022-08-14T21:07:51.275Z,6.20
2022-08-14T21:10:34.198Z,6.13
2022-08-14T21:14:09.307Z,6.07
2022-08-14T21:15:57.344Z,5.90
2022-08-14T21:18:30.492Z,6.22
2022-08-14T21:21:00.663Z,5.73
2022-08-14T21:23:32.931Z,6.65
2022-08-14T21:26:00.495Z,6.50
2022-08-14T21:28:30.699Z,6.82
2022-08-14T21:31:04.442Z,6.85
2022-08-14T21:33:34.312Z,6.88
2022-08-14T21:36:07.734Z,6.65
2022-08-14T21:38:37.358Z,6.45
2022-08-14T21:41:43.102Z,6.63
2022-08-14T21:44:18.407Z,7.20
2022-08-14T21:46:53.451Z,7.45
2022-08-14T21:49:22.848Z,6.85
2022-08-14T21:51:57.150Z,6.65
2022-08-14T21:54:49.558Z,6.88
2022-08-14T21:57:20.951Z,6.60
2022-08-14T22:00:34.888Z,6.93
2022-08-14T22:03:01.431Z,7.13
2022-08-14T22:05:29.702Z,7.03
2022-08-14T22:07:57.825Z,6.40
2022-08-14T22:10:25.477Z,6.85
2022-08-14T22:13:00.341Z,7.35
2022-08-14T22:15:29.160Z,7.35
2022-08-14T22:17:58.505Z,7.95
2022-08-14T22:20:29.254Z,7.78
2022-08-14T22:22:57.623Z,6.85
2022-08-14T22:25:33.848Z,7.70
2022-08-14T22:28:06.310Z,6.90
2022-08-14T22:30:37.606Z,7.30
2022-08-14T22:33:05.975Z,7.40
2022-08-14T22:35:37.529Z,7.25
2022-08-14T22:38:37.270Z,7.13
2022-08-14T22:41:18.031Z,7.25
2022-08-14T22:43:41.272Z,7.30
2022-08-14T22:46:14.398Z,7.40
2022-08-14T22:48:45.263Z,7.50
2022-08-14T22:51:17.710Z,6.65
2022-08-14T22:53:46.200Z,6.95
2022-08-14T22:56:20.755Z,6.90
2022-08-14T22:58:53.948Z,6.15
2022-08-14T23:01:55.640Z,6.35
2022-08-14T23:04:35.519Z,6.63
2022-08-14T23:07:21.956Z,6.18
2022-08-14T23:09:56.412Z,6.50
2022-08-14T23:12:28.843Z,5.72
2022-08-14T23:14:57.977Z,5.68
2022-08-14T23:17:39.625Z,5.53
2022-08-14T23:20:18.796Z,5.68
2022-08-14T23:22:49.033Z,5.10
2022-08-14T23:25:57.159Z,5.20
2022-08-14T23:28:33.431Z,4.65
2022-08-14T23:30:58.348Z,5.20
2022-08-14T23:33:28.089Z,4.95
2022-08-14T23:35:59.158Z,4.60
2022-08-14T23:38:31.006Z,5.13
2022-08-14T23:41:04.088Z,4.95
2022-08-14T23:43:31.882Z,5.05
2022-08-14T23:45:59.287Z,5.03
2022-08-14T23:48:28.530Z,5.20
2022-08-14T23:50:56.738Z,4.70
2022-08-14T23:53:48.052Z,4.90
2022-08-14T23:56:31.865Z,5.20
2022-08-14T23:59:00.995Z,4.53
